UASS

Semipalatinsk Airport

Semey, Kazakhstan
TAF UASS 230801Z 2309/2318 25007MPS 9999 -SHRA BKN020CB TEMPO 2309/2315 24011G16MPS 5000 SCT008 BKN015CB
Issued Valid From Valid To
Apr-23 @ 08:01 UTC
(an hour ago)
Apr-23 @ 09:00 UTC
(21 minutes ago)
Apr-23 @ 18:00 UTC
(in 9 hours)
Apr-23 @ 09:00 to Apr-23 @ 18:00
TAF UASS 230801Z 2309/2318 25007MPS 9999 -SHRA BKN020CB
Wind Visibility Clouds Conditions
250° at 14 knots 10,000+ meters
  • Broken at 2,000' AGL
  • Light Rain
Temporary Apr-23 @ 09:00 to Apr-23 @ 15:00
TEMPO 2309/2315 24011G16MPS 5000 SCT008 BKN015CB
Wind Visibility Clouds
240° at 21 knots
 Gusting to 31 knots
5,005 meters
  • Scattered at 800' AGL
  • Broken at 1,500' AGL
TAF UASS 230801Z 2309/2318 25007MPS 9999 -SHRA BKN020CB TEMPO 2309/2315 24011G16MPS 5000 SCT008 BKN015CB
Issued Apr-23 @ 08:01 UTC
(an hour ago)
Valid From Apr-23 @ 09:00 UTC
(21 minutes ago)
Valid To Apr-23 @ 18:00 UTC
(in 9 hours)
Apr-23 @ 09:00 - Apr-23 @ 18:00
Wind Visibility
250° at 14 knots 10,000+ meters
Clouds
  • Broken at 2,000' AGL
Conditions
  • Light Rain
Temporary Apr-23 @ 09:00 - Apr-23 @ 15:00
Wind Visibility
240° at 21 knots
 Gusting to 31 knots
5,005 meters
Clouds
  • Scattered at 800' AGL
  • Broken at 1,500' AGL